createdAt,value
2022-11-09T00:02:30.420Z,77.13
2022-11-09T00:07:23.622Z,76.91
2022-11-09T00:12:16.911Z,78.77
2022-11-09T00:17:11.564Z,80.23
2022-11-09T00:22:04.886Z,81.87
2022-11-09T00:26:58.043Z,82.89
2022-11-09T00:31:54.914Z,83.31
2022-11-09T00:36:49.556Z,83.99
2022-11-09T00:41:42.767Z,84.84
2022-11-09T00:46:36.272Z,85.22
2022-11-09T00:51:29.737Z,85.79
2022-11-09T00:56:24.710Z,86.22
2022-11-09T01:01:19.165Z,86.33
2022-11-09T01:06:16.189Z,85.74
2022-11-09T01:11:11.406Z,85.48
2022-11-09T01:16:09.432Z,85.63
2022-11-09T01:21:05.046Z,85.41
2022-11-09T01:26:01.935Z,85.75
2022-11-09T01:30:55.463Z,86.33
2022-11-09T01:35:50.222Z,86.87
2022-11-09T01:40:43.540Z,87.08
2022-11-09T01:45:36.889Z,87.34
2022-11-09T01:50:39.589Z,87.80
2022-11-09T01:55:34.234Z,86.78
2022-11-09T02:00:27.396Z,85.44
2022-11-09T02:05:30.051Z,84.72
2022-11-09T02:10:29.231Z,84.77
2022-11-09T02:15:27.347Z,85.75
2022-11-09T02:20:23.095Z,86.96
2022-11-09T02:25:18.955Z,88.02
2022-11-09T02:30:14.076Z,89.15
2022-11-09T02:35:07.637Z,90.14
2022-11-09T02:40:05.813Z,90.67
2022-11-09T02:45:00.880Z,90.90
2022-11-09T02:49:54.818Z,90.49
2022-11-09T02:54:48.272Z,88.75
2022-11-09T02:59:43.013Z,86.58
2022-11-09T03:04:37.455Z,86.45
2022-11-09T03:09:31.867Z,86.93
2022-11-09T03:14:25.085Z,87.07
2022-11-09T03:19:24.790Z,86.56
2022-11-09T03:24:19.461Z,87.04
2022-11-09T03:29:12.989Z,88.35
2022-11-09T03:34:06.483Z,89.02
2022-11-09T03:39:03.396Z,88.30
2022-11-09T03:43:58.468Z,87.07
2022-11-09T03:48:51.797Z,86.11
2022-11-09T03:53:44.994Z,86.09
2022-11-09T03:58:39.555Z,86.55
2022-11-09T04:03:32.901Z,87.48
2022-11-09T04:08:27.340Z,87.83
2022-11-09T04:13:20.759Z,89.02
2022-11-09T04:18:17.894Z,89.75
2022-11-09T04:23:12.514Z,90.52
2022-11-09T04:28:07.229Z,91.13
2022-11-09T04:33:02.100Z,87.97
2022-11-09T04:37:57.794Z,85.54
2022-11-09T04:42:51.215Z,87.13
2022-11-09T04:47:46.719Z,88.28
2022-11-09T04:52:40.191Z,89.40
2022-11-09T04:57:34.822Z,89.17
2022-11-09T05:02:28.085Z,87.13
2022-11-09T05:07:21.511Z,86.47
2022-11-09T05:12:15.108Z,86.86
2022-11-09T05:17:10.017Z,88.20
2022-11-09T05:22:23.517Z,89.17
2022-11-09T05:27:16.932Z,90.07
2022-11-09T05:32:14.658Z,90.81
2022-11-09T05:37:08.308Z,91.66
2022-11-09T05:42:01.564Z,92.00
2022-11-09T05:46:55.236Z,89.30
2022-11-09T05:51:51.936Z,87.86
2022-11-09T05:56:47.856Z,87.42
2022-11-09T06:01:41.349Z,87.41
2022-11-09T06:06:34.753Z,87.76
2022-11-09T06:11:29.922Z,88.19
2022-11-09T06:16:23.659Z,88.49
2022-11-09T06:21:16.892Z,88.15
2022-11-09T06:26:12.432Z,87.81
2022-11-09T06:31:11.745Z,87.63
2022-11-09T06:36:05.632Z,87.92
2022-11-09T06:41:00.438Z,88.04
2022-11-09T06:45:53.948Z,87.91
2022-11-09T06:50:48.619Z,88.07
2022-11-09T06:55:45.838Z,88.39
2022-11-09T07:00:42.385Z,88.66
2022-11-09T07:05:39.345Z,88.48
2022-11-09T07:10:33.892Z,88.67
2022-11-09T07:15:27.090Z,88.72
2022-11-09T07:20:20.467Z,88.97
2022-11-09T07:25:14.157Z,88.89
2022-11-09T07:30:09.923Z,88.67
2022-11-09T07:35:03.522Z,88.20
2022-11-09T07:39:56.701Z,87.74
2022-11-09T07:44:49.811Z,86.69
2022-11-09T07:49:44.367Z,85.72
2022-11-09T07:54:38.208Z,86.21
2022-11-09T07:59:31.640Z,86.95
2022-11-09T08:04:24.981Z,86.26
2022-11-09T08:09:19.688Z,84.79
2022-11-09T08:14:12.791Z,83.66
2022-11-09T08:19:08.958Z,82.54
2022-11-09T08:24:02.070Z,81.15
2022-11-09T08:28:56.923Z,80.05
2022-11-09T08:33:50.048Z,78.96
2022-11-09T08:38:44.287Z,77.87
2022-11-09T08:43:37.640Z,76.62
2022-11-09T08:48:32.233Z,76.04
2022-11-09T08:53:26.655Z,76.14
2022-11-09T08:58:21.056Z,73.48
2022-11-09T09:03:14.611Z,69.55
2022-11-09T09:08:11.698Z,66.77
2022-11-09T09:13:05.656Z,63.59
2022-11-09T09:18:01.646Z,61.63
2022-11-09T09:22:54.735Z,60.96
2022-11-09T09:27:52.922Z,59.84
2022-11-09T09:32:46.225Z,60.29
2022-11-09T09:37:39.329Z,60.16
2022-11-09T09:42:36.534Z,60.83
2022-11-09T09:47:41.844Z,60.28
2022-11-09T09:52:40.357Z,60.24
2022-11-09T09:57:40.505Z,60.19
2022-11-09T10:02:38.297Z,60.13
2022-11-09T10:07:39.016Z,60.39
2022-11-09T10:12:43.080Z,60.07
2022-11-09T10:17:45.766Z,59.58
2022-11-09T10:22:53.166Z,58.27
2022-11-09T10:27:53.338Z,57.05
2022-11-09T10:32:53.198Z,56.87
2022-11-09T10:37:49.172Z,56.74
2022-11-09T10:42:46.368Z,56.77
2022-11-09T10:48:03.287Z,56.39
2022-11-09T10:53:18.180Z,56.88
2022-11-09T10:58:34.388Z,57.18
2022-11-09T11:03:51.561Z,56.67
2022-11-09T11:09:17.732Z,56.51
2022-11-09T11:14:34.163Z,56.33
2022-11-09T11:19:47.334Z,57.14
2022-11-09T11:25:00.257Z,57.33
2022-11-09T11:30:16.908Z,57.42
2022-11-09T11:35:37.273Z,56.86
2022-11-09T11:41:01.572Z,57.45
2022-11-09T11:46:19.259Z,57.31
2022-11-09T11:51:43.423Z,57.49
2022-11-09T11:57:04.558Z,57.66
2022-11-09T12:02:45.111Z,56.73
2022-11-09T12:08:04.017Z,56.81
2022-11-09T12:13:32.880Z,56.71
2022-11-09T12:18:58.018Z,56.71
2022-11-09T12:24:19.657Z,56.63
2022-11-09T12:29:37.125Z,56.99
2022-11-09T12:34:58.166Z,57.87
2022-11-09T12:40:19.129Z,58.26
2022-11-09T12:45:34.266Z,58.88
2022-11-09T12:50:49.176Z,59.00
2022-11-09T12:56:05.909Z,58.71
2022-11-09T13:01:51.145Z,58.45
2022-11-09T13:07:30.066Z,58.41
2022-11-09T13:12:43.806Z,58.77
2022-11-09T13:19:29.525Z,58.22
2022-11-09T16:12:03.624Z,67.40
2022-11-09T16:17:36.603Z,68.11
2022-11-09T16:23:07.562Z,68.31
2022-11-09T16:35:32.688Z,68.82
2022-11-09T16:40:45.718Z,68.84
2022-11-09T16:45:57.393Z,68.96
2022-11-09T16:51:10.802Z,69.44
2022-11-09T16:56:22.572Z,70.34
2022-11-09T17:01:36.799Z,70.87
2022-11-09T17:06:50.820Z,71.06
2022-11-09T17:12:03.180Z,71.94
2022-11-09T17:17:21.280Z,71.92
2022-11-09T17:22:35.875Z,72.18
2022-11-09T17:27:48.336Z,72.28
2022-11-09T17:33:00.554Z,72.45
2022-11-09T17:38:16.779Z,72.12
2022-11-09T17:43:30.790Z,73.00
2022-11-09T17:48:44.820Z,73.66
2022-11-09T17:53:59.521Z,73.85
2022-11-09T17:59:12.275Z,73.80
2022-11-09T18:04:28.683Z,72.97
2022-11-09T18:09:42.728Z,71.71
2022-11-09T18:14:54.888Z,73.86
2022-11-09T18:20:07.870Z,75.02
2022-11-09T18:25:22.319Z,76.37
2022-11-09T18:30:34.093Z,77.11
2022-11-09T18:35:46.285Z,77.88
2022-11-09T18:41:02.046Z,78.69
2022-11-09T18:46:16.248Z,79.93
2022-11-09T18:51:28.454Z,80.57
2022-11-09T18:56:41.993Z,81.30
2022-11-09T19:01:53.902Z,81.96
2022-11-09T19:07:06.210Z,82.01
2022-11-09T19:12:19.541Z,82.17
2022-11-09T19:17:31.501Z,82.04
2022-11-09T19:22:44.219Z,81.90
2022-11-09T19:27:58.659Z,82.73
2022-11-09T19:33:10.520Z,83.29
2022-11-09T19:38:22.368Z,82.65
2022-11-09T19:43:35.983Z,83.10
2022-11-09T19:48:48.963Z,83.45
2022-11-09T19:54:02.369Z,83.37
2022-11-09T19:59:17.395Z,82.99
2022-11-09T20:04:29.507Z,82.81
2022-11-09T20:09:41.238Z,82.72
2022-11-09T20:14:57.251Z,82.55
2022-11-09T20:20:11.196Z,82.89
2022-11-09T20:25:24.754Z,83.01
2022-11-09T20:30:43.049Z,83.37
2022-11-09T20:35:58.242Z,83.68
2022-11-09T20:41:13.385Z,84.36
2022-11-09T20:46:36.197Z,84.55
2022-11-09T20:51:49.332Z,84.79
2022-11-09T20:57:04.503Z,85.45
2022-11-09T21:02:18.082Z,86.65
2022-11-09T21:07:38.957Z,86.61
2022-11-09T21:12:54.542Z,87.02
2022-11-09T21:18:11.574Z,87.04
2022-11-09T21:23:40.912Z,87.52
2022-11-09T21:29:10.562Z,87.46
2022-11-09T21:34:24.228Z,87.39
2022-11-09T21:39:36.739Z,87.87
2022-11-09T21:44:48.748Z,88.20
2022-11-09T21:50:01.823Z,88.30
2022-11-09T21:55:13.568Z,88.82
2022-11-09T22:00:25.253Z,89.09
2022-11-09T22:05:40.637Z,90.02
2022-11-09T22:10:52.488Z,90.42
2022-11-09T22:16:13.589Z,90.98
2022-11-09T22:21:29.832Z,91.27
2022-11-09T22:26:42.722Z,90.95
2022-11-09T22:31:54.615Z,90.66
2022-11-09T22:37:09.175Z,90.08
2022-11-09T22:42:23.904Z,90.26
2022-11-09T22:47:36.110Z,90.64
2022-11-09T22:52:54.144Z,90.88
2022-11-09T22:58:06.365Z,91.84
2022-11-09T23:03:19.415Z,91.07
2022-11-09T23:08:37.549Z,90.68
2022-11-09T23:13:51.443Z,90.16
2022-11-09T23:19:03.754Z,89.85
2022-11-09T23:24:37.815Z,90.44
2022-11-09T23:29:49.666Z,90.73
2022-11-09T23:35:03.838Z,90.66
2022-11-09T23:40:17.698Z,90.64
2022-11-09T23:45:29.529Z,90.79
2022-11-09T23:50:41.912Z,90.57
2022-11-09T23:55:56.301Z,90.47
